createdAt,value
2017-09-21T00:01:36.894Z,4.20
2017-09-21T00:04:03.127Z,4.43
2017-09-21T00:06:29.355Z,5.70
2017-09-21T00:08:55.640Z,4.40
2017-09-21T00:11:21.853Z,4.70
2017-09-21T00:13:48.065Z,4.70
2017-09-21T00:16:14.338Z,5.00
2017-09-21T00:18:40.680Z,4.50
2017-09-21T00:21:06.893Z,5.07
2017-09-21T00:23:33.176Z,4.80
2017-09-21T00:25:59.393Z,5.10
2017-09-21T00:28:25.602Z,3.93
2017-09-21T00:30:51.866Z,4.67
2017-09-21T00:33:18.085Z,4.33
2017-09-21T00:35:44.315Z,4.60
2017-09-21T00:38:10.557Z,5.70
2017-09-21T00:40:36.753Z,4.30
2017-09-21T00:43:02.971Z,4.53
2017-09-21T00:45:29.218Z,4.90
2017-09-21T00:47:55.442Z,5.00
2017-09-21T00:50:21.632Z,4.37
2017-09-21T00:52:47.877Z,5.23
2017-09-21T00:55:14.069Z,4.77
2017-09-21T00:57:40.263Z,5.40
2017-09-21T01:00:06.544Z,5.20
2017-09-21T01:02:32.756Z,5.40
2017-09-21T01:04:58.974Z,5.63
2017-09-21T01:07:25.230Z,5.93
2017-09-21T01:09:51.451Z,6.23
2017-09-21T01:12:17.648Z,6.77
2017-09-21T01:14:43.909Z,7.07
2017-09-21T01:17:10.123Z,8.30
2017-09-21T01:19:36.346Z,6.40
2017-09-21T01:22:02.609Z,6.13
2017-09-21T01:24:28.812Z,6.53
2017-09-21T01:26:55.017Z,7.17
2017-09-21T01:29:21.295Z,8.40
2017-09-21T01:31:47.505Z,8.00
2017-09-21T01:34:13.713Z,6.90
2017-09-21T01:36:39.991Z,7.73
2017-09-21T01:39:06.212Z,8.10
2017-09-21T01:41:32.452Z,6.93
2017-09-21T01:43:58.727Z,6.33
2017-09-21T01:46:24.955Z,9.17
2017-09-21T01:48:51.167Z,8.23
2017-09-21T01:51:17.435Z,8.07
2017-09-21T01:53:43.645Z,8.37
2017-09-21T01:56:09.857Z,7.63
2017-09-21T01:58:36.270Z,7.47
2017-09-21T02:01:02.477Z,8.20
2017-09-21T02:03:28.691Z,8.23
2017-09-21T02:05:54.963Z,9.33
2017-09-21T02:08:21.178Z,10.03
2017-09-21T02:10:47.387Z,10.27
2017-09-21T02:13:13.659Z,10.63
2017-09-21T02:15:39.886Z,9.13
2017-09-21T02:18:06.105Z,9.67
2017-09-21T02:20:32.388Z,12.17
2017-09-21T02:22:58.598Z,10.13
2017-09-21T02:25:24.809Z,10.20
2017-09-21T02:27:51.086Z,10.07
2017-09-21T02:30:17.304Z,10.57
2017-09-21T02:32:43.517Z,10.63
2017-09-21T02:35:09.780Z,9.90
2017-09-21T02:37:35.985Z,9.43
2017-09-21T02:40:02.428Z,10.30
2017-09-21T02:42:28.825Z,10.60
2017-09-21T02:44:55.050Z,9.97
2017-09-21T02:47:21.261Z,8.93
2017-09-21T02:49:47.541Z,9.80
2017-09-21T02:52:13.748Z,8.63
2017-09-21T02:54:39.954Z,9.60
2017-09-21T02:57:06.212Z,9.73
2017-09-21T02:59:32.412Z,9.33
2017-09-21T03:01:58.623Z,8.87
2017-09-21T03:04:24.873Z,9.03
2017-09-21T03:06:51.103Z,8.47
2017-09-21T03:09:17.330Z,9.60
2017-09-21T03:11:43.581Z,8.70
2017-09-21T03:14:09.975Z,9.40
2017-09-21T03:16:36.203Z,10.07
2017-09-21T03:19:02.473Z,8.60
2017-09-21T03:21:28.679Z,9.30
2017-09-21T03:23:54.889Z,9.07
2017-09-21T03:26:21.149Z,9.50
2017-09-21T03:28:47.368Z,12.03
2017-09-21T03:31:13.585Z,9.00
2017-09-21T03:33:39.874Z,9.53
2017-09-21T03:36:06.217Z,9.10
2017-09-21T03:38:32.494Z,10.33
2017-09-21T03:40:59.080Z,8.87
2017-09-21T03:43:25.475Z,9.57
2017-09-21T03:45:51.676Z,9.13
2017-09-21T03:48:17.924Z,10.23
2017-09-21T03:50:44.129Z,10.23
2017-09-21T03:53:10.352Z,10.17
2017-09-21T03:55:36.657Z,10.70
2017-09-21T03:58:02.867Z,10.17
2017-09-21T04:00:29.091Z,11.33
2017-09-21T04:02:55.355Z,11.83
2017-09-21T04:05:21.573Z,10.50
2017-09-21T04:07:47.803Z,11.60
2017-09-21T04:10:14.460Z,17.63
2017-09-21T04:12:40.950Z,15.17
2017-09-21T04:15:07.390Z,16.37
2017-09-21T04:17:33.740Z,14.70
2017-09-21T04:19:59.940Z,14.17
2017-09-21T04:22:26.161Z,15.23
2017-09-21T04:24:52.423Z,16.30
2017-09-21T04:27:18.665Z,13.70
2017-09-21T04:29:44.918Z,13.90
2017-09-21T04:32:11.184Z,11.40
2017-09-21T04:34:37.401Z,11.23
2017-09-21T04:37:03.612Z,13.80
2017-09-21T04:39:29.849Z,11.17
2017-09-21T04:41:56.089Z,12.93
2017-09-21T04:44:22.319Z,10.23
2017-09-21T04:46:48.610Z,9.57
2017-09-21T04:49:14.817Z,9.77
2017-09-21T04:51:41.085Z,9.40
2017-09-21T04:54:07.380Z,11.00
2017-09-21T04:56:33.620Z,9.47
2017-09-21T04:58:59.852Z,10.60
2017-09-21T05:01:26.096Z,10.30
2017-09-21T05:03:52.317Z,9.03
2017-09-21T05:06:18.545Z,8.60
2017-09-21T05:08:44.762Z,10.17
2017-09-21T05:11:11.194Z,9.90
2017-09-21T05:13:37.406Z,7.83
2017-09-21T05:16:03.649Z,7.93
2017-09-21T05:18:29.864Z,7.07
2017-09-21T05:20:56.092Z,7.40
2017-09-21T05:23:22.526Z,8.73
2017-09-21T05:25:48.763Z,7.37
2017-09-21T05:28:14.981Z,7.77
2017-09-21T05:30:41.214Z,6.30
2017-09-21T05:33:07.446Z,5.60
2017-09-21T05:35:33.663Z,5.70
2017-09-21T05:37:59.944Z,4.63
2017-09-21T05:40:26.152Z,6.10
2017-09-21T05:42:52.376Z,4.67
2017-09-21T05:45:18.638Z,5.60
2017-09-21T05:47:44.862Z,4.90
2017-09-21T05:50:11.087Z,5.00
2017-09-21T05:52:37.340Z,5.60
2017-09-21T05:55:03.562Z,6.60
2017-09-21T05:57:29.800Z,6.30
2017-09-21T05:59:56.065Z,6.50
2017-09-21T06:02:22.285Z,7.40
2017-09-21T06:04:48.508Z,6.83
2017-09-21T06:07:14.774Z,6.80
2017-09-21T06:09:41.008Z,8.03
2017-09-21T06:12:07.244Z,7.00
2017-09-21T06:14:33.548Z,6.23
2017-09-21T06:16:59.761Z,6.77
2017-09-21T06:19:25.989Z,5.10
2017-09-21T06:21:52.418Z,4.97
2017-09-21T06:24:18.771Z,5.30
2017-09-21T06:26:45.002Z,4.60
2017-09-21T06:29:11.280Z,5.03
2017-09-21T06:31:37.626Z,5.67
2017-09-21T06:34:03.857Z,4.67
2017-09-21T06:36:30.122Z,4.93
2017-09-21T06:38:56.360Z,4.73
2017-09-21T06:41:22.573Z,16.30
2017-09-21T06:43:48.824Z,4.50
2017-09-21T06:46:15.033Z,6.70
2017-09-21T06:48:41.242Z,5.50
2017-09-21T06:51:07.497Z,6.07
2017-09-21T06:53:33.706Z,5.00
2017-09-21T06:55:59.942Z,5.30
2017-09-21T06:58:26.218Z,5.00
2017-09-21T07:00:52.438Z,4.37
2017-09-21T07:03:18.663Z,4.63
2017-09-21T07:05:44.948Z,5.00
2017-09-21T07:08:11.166Z,5.37
2017-09-21T07:10:37.391Z,4.70
2017-09-21T07:13:03.673Z,5.17
2017-09-21T07:15:29.904Z,6.00
2017-09-21T07:17:56.118Z,6.73
2017-09-21T07:20:22.377Z,6.07
2017-09-21T07:22:48.600Z,5.47
2017-09-21T07:25:14.902Z,4.90
2017-09-21T07:27:41.170Z,6.53
2017-09-21T07:30:07.385Z,6.50
2017-09-21T07:32:33.592Z,6.13
2017-09-21T07:34:59.866Z,5.53
2017-09-21T07:37:26.086Z,6.73
2017-09-21T07:39:52.301Z,6.80
2017-09-21T07:42:18.584Z,5.60
2017-09-21T07:44:44.801Z,6.23
2017-09-21T07:47:11.032Z,7.40
2017-09-21T07:49:37.298Z,7.07
2017-09-21T07:52:03.527Z,6.50
2017-09-21T07:54:29.756Z,7.40
2017-09-21T07:56:56.043Z,7.27
2017-09-21T07:59:22.258Z,6.10
2017-09-21T08:01:48.468Z,6.97
2017-09-21T08:04:14.734Z,5.70
2017-09-21T08:06:40.947Z,6.20
2017-09-21T08:09:07.157Z,6.53
2017-09-21T08:11:33.429Z,5.53
2017-09-21T08:13:59.645Z,5.80
2017-09-21T08:16:25.873Z,7.40
2017-09-21T08:18:52.133Z,5.83
2017-09-21T08:21:18.349Z,6.07
2017-09-21T08:23:44.549Z,5.03
2017-09-21T08:26:10.809Z,5.57
2017-09-21T08:28:37.035Z,4.97
2017-09-21T08:31:03.250Z,4.50
2017-09-21T08:33:29.532Z,4.47
2017-09-21T08:35:55.755Z,5.10
2017-09-21T08:38:21.993Z,5.23
2017-09-21T08:40:48.260Z,5.07
2017-09-21T08:43:14.479Z,5.57
2017-09-21T08:45:40.704Z,6.37
2017-09-21T08:48:06.994Z,5.83
2017-09-21T08:50:33.203Z,5.43
2017-09-21T08:52:59.418Z,5.20
2017-09-21T08:55:25.713Z,4.63
2017-09-21T08:57:51.944Z,5.20
2017-09-21T09:00:18.165Z,4.30
2017-09-21T09:02:44.447Z,4.60
2017-09-21T09:05:10.675Z,4.50
2017-09-21T09:07:36.894Z,5.10
2017-09-21T09:10:03.173Z,4.80
2017-09-21T09:12:29.396Z,4.60
2017-09-21T09:14:55.613Z,5.00
2017-09-21T09:17:21.893Z,4.30
2017-09-21T09:19:48.131Z,3.70
2017-09-21T09:22:14.349Z,3.97
2017-09-21T09:24:40.588Z,3.70
2017-09-21T09:27:06.798Z,3.30
2017-09-21T09:29:32.998Z,3.67
2017-09-21T09:31:59.246Z,3.50
2017-09-21T09:34:25.450Z,3.70
2017-09-21T09:36:51.657Z,3.30
2017-09-21T09:39:17.852Z,3.27
2017-09-21T09:41:44.071Z,5.03
2017-09-21T09:44:10.294Z,4.70
2017-09-21T09:46:36.552Z,3.30
2017-09-21T09:49:02.872Z,4.60
2017-09-21T09:51:29.111Z,4.67
2017-09-21T09:53:55.352Z,4.40
2017-09-21T09:56:21.581Z,4.30
2017-09-21T09:58:47.802Z,4.50
2017-09-21T10:01:14.030Z,4.60
2017-09-21T10:03:40.247Z,4.67
2017-09-21T10:06:06.456Z,4.40
2017-09-21T10:08:32.691Z,4.40
2017-09-21T10:10:58.900Z,5.87
2017-09-21T10:13:25.134Z,3.67
2017-09-21T10:15:51.365Z,4.37
2017-09-21T10:18:17.577Z,3.13
2017-09-21T10:20:43.855Z,3.97
2017-09-21T10:23:10.078Z,3.73
2017-09-21T10:25:36.289Z,4.20
2017-09-21T10:28:02.558Z,4.27
2017-09-21T10:30:28.778Z,4.20
2017-09-21T10:32:54.990Z,3.57
2017-09-21T10:35:21.264Z,4.07
2017-09-21T10:37:47.487Z,4.37
2017-09-21T10:40:13.708Z,4.20
2017-09-21T10:42:39.974Z,4.37
2017-09-21T10:45:06.332Z,5.03
2017-09-21T10:47:32.555Z,4.60
2017-09-21T10:49:58.832Z,4.47
2017-09-21T10:52:25.046Z,3.73
2017-09-21T10:54:51.263Z,3.00
2017-09-21T10:57:17.547Z,4.10
2017-09-21T10:59:43.761Z,2.50
2017-09-21T11:02:09.974Z,3.50
2017-09-21T11:04:36.251Z,3.77
2017-09-21T11:07:02.459Z,4.13
2017-09-21T11:09:28.657Z,3.80
2017-09-21T11:11:54.910Z,3.93
2017-09-21T11:14:21.141Z,4.30
2017-09-21T11:16:47.379Z,3.70
2017-09-21T11:19:13.643Z,3.90
2017-09-21T11:21:39.855Z,3.43
2017-09-21T11:24:06.080Z,3.43
2017-09-21T11:26:32.346Z,3.60
2017-09-21T11:28:58.562Z,3.10
2017-09-21T11:31:24.884Z,3.73
2017-09-21T11:33:51.149Z,4.13
2017-09-21T11:36:17.367Z,4.47
2017-09-21T11:38:43.778Z,3.70
2017-09-21T11:41:10.058Z,3.10
2017-09-21T11:43:36.269Z,3.30
2017-09-21T11:46:02.498Z,5.10
2017-09-21T11:48:28.752Z,3.80
2017-09-21T11:50:54.963Z,7.77
2017-09-21T11:53:21.359Z,6.07
2017-09-21T11:55:47.663Z,6.50
2017-09-21T11:58:13.883Z,4.90
2017-09-21T12:00:40.115Z,4.87
2017-09-21T12:03:06.394Z,3.60
2017-09-21T12:05:32.624Z,3.87
2017-09-21T12:07:58.832Z,4.10
2017-09-21T12:10:25.140Z,3.50
2017-09-21T12:12:51.390Z,3.40
2017-09-21T12:15:17.617Z,3.87
2017-09-21T12:17:43.908Z,3.70
2017-09-21T12:20:10.256Z,3.77
2017-09-21T12:22:36.464Z,3.73
2017-09-21T12:25:02.775Z,3.43
2017-09-21T12:27:29.044Z,3.10
2017-09-21T12:29:55.284Z,4.13
2017-09-21T12:32:21.597Z,3.60
2017-09-21T12:34:47.800Z,3.00
2017-09-21T12:37:14.015Z,2.70
2017-09-21T12:39:40.306Z,2.70
2017-09-21T12:42:06.531Z,2.43
2017-09-21T12:44:32.775Z,2.20
2017-09-21T12:46:59.049Z,2.67
2017-09-21T12:49:25.284Z,3.00
2017-09-21T12:51:51.528Z,3.40
2017-09-21T12:54:17.930Z,2.50
2017-09-21T12:56:44.147Z,3.10
2017-09-21T12:59:10.436Z,3.50
2017-09-21T13:01:37.546Z,2.57
2017-09-21T13:04:03.767Z,2.47
2017-09-21T13:06:30.007Z,2.77
2017-09-21T13:08:56.281Z,2.47
2017-09-21T13:11:22.509Z,2.93
2017-09-21T13:13:48.721Z,2.20
2017-09-21T13:16:14.976Z,3.27
2017-09-21T13:18:41.205Z,2.70
2017-09-21T13:21:07.441Z,2.90
2017-09-21T13:23:33.756Z,2.10
2017-09-21T13:25:59.981Z,2.30
2017-09-21T13:28:26.204Z,1.87
2017-09-21T13:30:52.504Z,2.53
2017-09-21T13:33:18.714Z,2.83
2017-09-21T13:35:44.948Z,2.40
2017-09-21T13:38:11.217Z,3.20
2017-09-21T13:40:37.519Z,4.30
2017-09-21T13:43:03.729Z,3.77
2017-09-21T13:45:30.015Z,1.90
2017-09-21T13:47:56.235Z,2.20
2017-09-21T13:50:22.475Z,2.93
2017-09-21T13:52:48.758Z,2.50
2017-09-21T13:55:15.017Z,2.20
2017-09-21T13:57:41.251Z,3.03
2017-09-21T14:00:07.521Z,2.80
2017-09-21T14:02:33.726Z,2.40
2017-09-21T14:04:59.942Z,2.50
2017-09-21T14:07:26.226Z,2.90
2017-09-21T14:09:52.437Z,2.83
2017-09-21T14:12:18.645Z,2.63
2017-09-21T14:14:44.935Z,3.10
2017-09-21T14:17:11.277Z,2.70
2017-09-21T14:19:37.489Z,2.43
2017-09-21T14:22:03.781Z,2.87
2017-09-21T14:24:29.986Z,3.03
2017-09-21T14:26:56.183Z,3.17
2017-09-21T14:29:22.445Z,3.97
2017-09-21T14:31:48.663Z,6.47
2017-09-21T14:34:14.889Z,3.20
2017-09-21T14:36:41.161Z,3.83
2017-09-21T14:39:07.424Z,2.60
2017-09-21T14:41:33.654Z,2.50
2017-09-21T14:43:59.936Z,2.77
2017-09-21T14:46:26.168Z,2.97
2017-09-21T14:48:52.576Z,2.63
2017-09-21T14:51:18.875Z,2.87
2017-09-21T14:53:45.111Z,2.50
2017-09-21T14:56:11.333Z,2.50
2017-09-21T14:58:37.670Z,1.77
2017-09-21T15:01:03.886Z,2.17
2017-09-21T15:03:30.114Z,2.50
2017-09-21T15:05:56.421Z,2.37
2017-09-21T15:08:22.649Z,2.47
2017-09-21T15:10:48.894Z,4.33
2017-09-21T15:13:15.171Z,6.70
2017-09-21T15:15:41.466Z,7.17
2017-09-21T15:18:07.674Z,7.97
2017-09-21T15:20:33.942Z,7.30
2017-09-21T15:23:00.149Z,7.17
2017-09-21T15:25:26.390Z,7.47
2017-09-21T15:27:52.678Z,7.87
2017-09-21T15:30:18.903Z,6.70
2017-09-21T15:32:45.284Z,5.90
2017-09-21T15:35:11.624Z,5.63
2017-09-21T15:37:37.856Z,6.67
2017-09-21T15:40:04.071Z,6.33
2017-09-21T15:42:30.310Z,6.33
2017-09-21T15:44:56.644Z,6.13
2017-09-21T15:47:22.874Z,6.27
2017-09-21T15:49:49.137Z,5.40
2017-09-21T15:52:15.339Z,6.93
2017-09-21T15:54:41.536Z,7.13
2017-09-21T15:57:07.782Z,7.83
2017-09-21T15:59:33.969Z,5.97
2017-09-21T16:02:00.177Z,5.97
2017-09-21T16:04:26.427Z,7.10
2017-09-21T16:06:52.651Z,5.93
2017-09-21T16:09:18.866Z,6.90
2017-09-21T16:11:45.141Z,6.40
2017-09-21T16:14:11.342Z,5.30
2017-09-21T16:16:37.552Z,7.10
2017-09-21T16:19:03.827Z,6.07
2017-09-21T16:21:30.037Z,5.87
2017-09-21T16:23:56.238Z,6.53
2017-09-21T16:26:22.506Z,6.63
2017-09-21T16:28:48.723Z,6.30
2017-09-21T16:31:14.938Z,5.70
2017-09-21T16:33:41.187Z,7.27
2017-09-21T16:36:07.399Z,5.97
2017-09-21T16:38:33.620Z,6.07
2017-09-21T16:40:59.888Z,6.20
2017-09-21T16:43:26.086Z,6.30
2017-09-21T16:45:52.293Z,7.03
2017-09-21T16:48:18.565Z,6.17
2017-09-21T16:50:44.777Z,5.50
2017-09-21T16:53:10.975Z,6.03
2017-09-21T16:55:37.228Z,5.10
2017-09-21T16:58:03.416Z,4.70
2017-09-21T17:00:29.627Z,5.87
2017-09-21T17:02:55.904Z,7.20
2017-09-21T17:05:22.106Z,5.10
2017-09-21T17:07:48.332Z,5.00
2017-09-21T17:10:14.585Z,5.50
2017-09-21T17:12:40.776Z,5.70
2017-09-21T17:15:06.975Z,5.67
2017-09-21T17:17:33.255Z,4.93
2017-09-21T17:19:59.452Z,5.17
2017-09-21T17:22:25.662Z,5.40
2017-09-21T17:24:51.924Z,4.80
2017-09-21T17:27:18.127Z,5.30
2017-09-21T17:29:44.330Z,4.60
2017-09-21T17:32:10.618Z,5.60
2017-09-21T17:34:36.803Z,5.70
2017-09-21T17:37:03.004Z,5.27
2017-09-21T17:39:29.285Z,6.70
2017-09-21T17:41:55.492Z,6.23
2017-09-21T17:44:21.690Z,5.50
2017-09-21T17:46:47.960Z,5.83
2017-09-21T17:49:14.168Z,6.83
2017-09-21T17:51:40.369Z,5.67
2017-09-21T17:54:06.608Z,6.07
2017-09-21T17:56:32.804Z,4.80
2017-09-21T17:58:58.992Z,5.83
2017-09-21T18:01:25.260Z,5.83
2017-09-21T18:03:51.481Z,5.50
2017-09-21T18:06:17.703Z,6.53
2017-09-21T18:08:43.963Z,5.27
2017-09-21T18:11:10.164Z,7.40
2017-09-21T18:13:36.382Z,7.27
2017-09-21T18:16:02.764Z,6.73
2017-09-21T18:18:28.994Z,7.37
2017-09-21T18:20:55.334Z,7.60
2017-09-21T18:23:21.598Z,8.67
2017-09-21T18:25:47.809Z,10.20
2017-09-21T18:28:14.017Z,10.20
2017-09-21T18:30:40.463Z,11.73
2017-09-21T18:33:06.664Z,12.10
2017-09-21T18:35:32.878Z,13.23
2017-09-21T18:37:59.132Z,12.73
2017-09-21T18:40:25.422Z,11.30
2017-09-21T18:42:51.733Z,11.87
2017-09-21T18:45:18.016Z,11.13
2017-09-21T18:47:44.258Z,11.60
2017-09-21T18:50:10.461Z,13.43
2017-09-21T18:52:36.722Z,12.20
2017-09-21T18:55:02.939Z,13.60
2017-09-21T18:57:29.141Z,12.70
2017-09-21T18:59:55.428Z,12.53
2017-09-21T19:02:21.668Z,12.80
2017-09-21T19:04:47.885Z,12.57
2017-09-21T19:07:14.147Z,11.07
2017-09-21T19:09:40.364Z,9.80
2017-09-21T19:12:06.572Z,10.33
2017-09-21T19:14:32.871Z,10.17
2017-09-21T19:16:59.079Z,7.60
2017-09-21T19:19:25.277Z,7.93
2017-09-21T19:21:51.557Z,10.03
2017-09-21T19:24:17.753Z,8.20
2017-09-21T19:26:43.954Z,8.90
2017-09-21T19:29:10.196Z,7.20
2017-09-21T19:31:36.404Z,7.80
2017-09-21T19:34:02.600Z,6.73
2017-09-21T19:36:28.896Z,7.37
2017-09-21T19:38:55.098Z,6.67
2017-09-21T19:41:21.313Z,6.90
2017-09-21T19:43:47.550Z,7.00
2017-09-21T19:46:13.768Z,7.07
2017-09-21T19:48:39.966Z,7.17
2017-09-21T19:51:06.240Z,5.93
2017-09-21T19:53:32.469Z,7.63
2017-09-21T19:55:58.658Z,6.90
2017-09-21T19:58:24.921Z,7.33
2017-09-21T20:00:51.120Z,5.90
2017-09-21T20:03:17.329Z,5.60
2017-09-21T20:05:43.612Z,7.30
2017-09-21T20:08:09.844Z,6.07
2017-09-21T20:10:36.039Z,5.57
2017-09-21T20:13:02.290Z,6.20
2017-09-21T20:15:28.572Z,4.30
2017-09-21T20:17:54.780Z,6.30
2017-09-21T20:20:21.033Z,4.40
2017-09-21T20:22:47.238Z,5.23
2017-09-21T20:25:13.447Z,4.30
2017-09-21T20:27:39.697Z,3.87
2017-09-21T20:30:05.884Z,4.60
2017-09-21T20:32:32.128Z,4.10
2017-09-21T20:34:58.410Z,3.60
2017-09-21T20:37:24.650Z,3.80
2017-09-21T20:39:50.851Z,4.80
2017-09-21T20:42:17.119Z,4.27
2017-09-21T20:44:43.309Z,4.10
2017-09-21T20:47:09.524Z,3.70
2017-09-21T20:49:35.789Z,3.60
2017-09-21T20:52:01.992Z,3.10
2017-09-21T20:54:28.208Z,4.47
2017-09-21T20:56:54.518Z,2.93
2017-09-21T20:59:20.731Z,4.33
2017-09-21T21:01:46.946Z,3.73
2017-09-21T21:04:13.214Z,4.00
2017-09-21T21:06:39.424Z,3.70
2017-09-21T21:09:05.617Z,3.90
2017-09-21T21:11:31.962Z,3.73
2017-09-21T21:13:58.192Z,4.07
2017-09-21T21:16:24.402Z,3.87
2017-09-21T21:18:50.672Z,3.80
2017-09-21T21:21:16.887Z,3.27
2017-09-21T21:23:43.091Z,3.63
2017-09-21T21:26:09.348Z,3.50
2017-09-21T21:28:35.579Z,3.20
2017-09-21T21:31:01.769Z,4.03
2017-09-21T21:33:28.066Z,4.40
2017-09-21T21:35:54.279Z,4.00
2017-09-21T21:38:20.485Z,3.77
2017-09-21T21:40:46.740Z,3.70
2017-09-21T21:43:12.953Z,4.40
2017-09-21T21:45:39.143Z,4.10
2017-09-21T21:48:05.447Z,4.10
2017-09-21T21:50:31.639Z,4.13
2017-09-21T21:52:57.842Z,4.10
2017-09-21T21:55:24.095Z,3.63
2017-09-21T21:57:50.287Z,5.07
2017-09-21T22:00:16.483Z,4.17
2017-09-21T22:02:42.733Z,4.80
2017-09-21T22:05:08.927Z,4.60
2017-09-21T22:07:35.267Z,3.83
2017-09-21T22:10:01.529Z,4.57
2017-09-21T22:12:27.878Z,5.30
2017-09-21T22:14:54.068Z,4.60
2017-09-21T22:17:20.322Z,4.30
2017-09-21T22:19:46.527Z,6.20
2017-09-21T22:22:12.740Z,4.30
2017-09-21T22:24:39.027Z,5.23
2017-09-21T22:27:05.441Z,4.90
2017-09-21T22:29:31.714Z,5.10
2017-09-21T22:31:58.130Z,5.40
2017-09-21T22:34:24.516Z,4.93
2017-09-21T22:36:50.960Z,4.93
2017-09-21T22:39:17.218Z,4.77
2017-09-21T22:41:43.468Z,4.30
2017-09-21T22:44:10.085Z,4.97
2017-09-21T22:46:36.526Z,3.93
2017-09-21T22:49:02.761Z,4.50
2017-09-21T22:51:29.381Z,5.50
2017-09-21T22:53:55.835Z,4.23
2017-09-21T22:56:22.071Z,4.13
2017-09-21T22:58:48.291Z,4.90
2017-09-21T23:01:14.722Z,5.60
2017-09-21T23:03:41.096Z,4.43
2017-09-21T23:06:07.385Z,5.40
2017-09-21T23:08:33.813Z,4.90
2017-09-21T23:11:00.097Z,4.60
2017-09-21T23:13:26.693Z,5.60
2017-09-21T23:15:53.307Z,6.70
2017-09-21T23:18:19.692Z,6.30
2017-09-21T23:20:46.139Z,4.80
2017-09-21T23:23:12.410Z,5.60
2017-09-21T23:25:38.818Z,5.53
2017-09-21T23:28:05.241Z,5.80
2017-09-21T23:30:31.682Z,6.00
2017-09-21T23:32:58.121Z,5.87
2017-09-21T23:35:24.393Z,6.07
2017-09-21T23:37:51.026Z,4.60
2017-09-21T23:40:17.452Z,5.23
2017-09-21T23:42:43.690Z,5.97
2017-09-21T23:45:10.311Z,5.80
2017-09-21T23:47:36.726Z,6.47
2017-09-21T23:50:02.986Z,5.27
2017-09-21T23:52:29.426Z,4.97
2017-09-21T23:54:56.027Z,5.40
2017-09-21T23:57:22.284Z,5.73
2017-09-21T23:59:48.517Z,5.50
